Time;durP1;ratioP1;P1;durP2;ratioP2;P2;SDS_P1;SDS_P2;PMS_P1;PMS_P2;Temp;Humidity;BMP_temperature;BMP_pressure;BME280_temperature;BME280_humidity;BME280_pressure;Samples;Min_cycle;Max_cycle;Signal;HPM_P1;HPM_P2
2022/12/18 00:01:28;;;;;;;45.83;41.13;;;;;;;-6.52;100.00;102760.19;5053513;28;20466;-48
2022/12/18 00:03:56;;;;;;;47.97;42.67;;;;;;;-6.53;100.00;102753.28;5053157;28;20439;-47
2022/12/18 00:06:27;;;;;;;46.97;42.47;;;;;;;-6.52;100.00;102774.03;5039292;28;20469;-47
2022/12/18 00:08:56;;;;;;;49.13;43.67;;;;;;;-6.49;100.00;102770.50;5044668;28;20517;-45
2022/12/18 00:11:27;;;;;;;49.63;44.40;;;;;;;-6.47;100.00;102771.31;5053426;28;20884;-45
2022/12/18 00:13:57;;;;;;;52.37;44.70;;;;;;;-6.44;100.00;102772.09;5053249;28;20799;-49
2022/12/18 00:16:27;;;;;;;50.83;44.70;;;;;;;-6.43;100.00;102758.22;5053007;28;20462;-48
2022/12/18 00:18:56;;;;;;;48.47;43.27;;;;;;;-6.40;100.00;102749.50;5052770;28;21041;-46
2022/12/18 00:21:24;;;;;;;54.27;44.57;;;;;;;-6.40;100.00;102754.69;5053011;28;20455;-46
2022/12/18 00:23:52;;;;;;;53.70;43.73;;;;;;;-6.37;100.00;102750.28;5053425;28;20435;-48
2022/12/18 00:26:21;;;;;;;52.33;46.50;;;;;;;-6.35;100.00;102771.00;5052920;28;20518;-49
2022/12/18 00:28:51;;;;;;;50.33;43.80;;;;;;;-6.33;100.00;102757.06;5052323;28;20501;-45
2022/12/18 00:31:21;;;;;;;48.87;43.90;;;;;;;-6.31;100.00;102760.50;5052912;28;21042;-50
2022/12/18 00:33:49;;;;;;;53.40;43.40;;;;;;;-6.32;100.00;102763.97;5052721;28;20481;-48
2022/12/18 00:36:23;;;;;;;45.87;41.17;;;;;;;-6.31;100.00;102767.44;5050413;28;20462;-48
2022/12/18 00:38:51;;;;;;;45.37;41.20;;;;;;;-6.32;100.00;102769.19;5043362;28;20778;-46
2022/12/18 00:44:02;;;;;;;47.27;42.77;;;;;;;-6.34;100.00;102764.91;5052010;28;20798;-46
2022/12/18 00:46:30;;;;;;;52.63;44.00;;;;;;;-6.34;100.00;102773.56;5052310;28;20472;-45
2022/12/18 00:48:58;;;;;;;49.07;43.87;;;;;;;-6.34;100.00;102775.31;5052554;28;20516;-48
2022/12/18 00:51:26;;;;;;;51.03;44.60;;;;;;;-6.35;100.00;102777.03;5052519;28;20455;-46
2022/12/18 00:53:54;;;;;;;50.03;44.67;;;;;;;-6.35;100.00;102771.84;5052376;28;20440;-50
2022/12/18 00:56:22;;;;;;;52.03;46.43;;;;;;;-6.36;100.00;102767.53;5052086;28;20488;-46
2022/12/18 00:58:50;;;;;;;50.40;45.57;;;;;;;-6.35;100.00;102760.59;5051891;28;20873;-46
2022/12/18 01:01:20;;;;;;;47.97;43.47;;;;;;;-6.33;100.00;102767.47;5052031;28;20850;-46
2022/12/18 01:03:48;;;;;;;51.00;45.57;;;;;;;-6.34;100.00;102765.78;5052408;28;20900;-46
2022/12/18 01:06:17;;;;;;;55.83;45.60;;;;;;;-6.31;100.00;102763.09;5052144;28;20998;-46
2022/12/18 01:08:45;;;;;;;51.60;46.30;;;;;;;-6.30;100.00;102771.75;5051301;28;20475;-47
2022/12/18 01:11:16;;;;;;;49.83;43.53;;;;;;;-6.30;100.00;102769.16;5051716;28;20459;-49
2022/12/18 01:13:44;;;;;;;51.07;45.83;;;;;;;-6.29;100.00;102768.25;5051588;28;20446;-46
2022/12/18 01:16:12;;;;;;;48.40;44.07;;;;;;;-6.28;100.00;102759.56;5051674;28;20431;-49
2022/12/18 01:18:41;;;;;;;50.77;45.47;;;;;;;-6.27;100.00;102767.31;5050254;28;20459;-46
2022/12/18 01:21:11;;;;;;;52.77;46.00;;;;;;;-6.26;100.00;102770.75;5051464;28;20447;-47
2022/12/18 01:23:38;;;;;;;50.60;45.30;;;;;;;-6.24;100.00;102767.22;5051954;28;20443;-48
2022/12/18 01:26:09;;;;;;;50.30;45.23;;;;;;;-6.21;100.00;102768.88;5052005;28;20485;-45
2022/12/18 01:28:37;;;;;;;49.07;44.23;;;;;;;-6.19;100.00;102769.72;5051178;28;20471;-46
2022/12/18 01:31:14;;;;;;;50.87;45.87;;;;;;;-6.16;100.00;102774.81;5051737;28;20486;-46
2022/12/18 01:33:43;;;;;;;49.90;44.43;;;;;;;-6.16;100.00;102772.22;5051552;28;20447;-46
2022/12/18 01:36:16;;;;;;;52.47;45.10;;;;;;;-6.13;100.00;102776.47;5051052;28;20431;-48
2022/12/18 01:38:44;;;;;;;50.00;45.13;;;;;;;-6.14;100.00;102780.81;5040536;28;20483;-46
2022/12/18 01:41:12;;;;;;;53.23;45.20;;;;;;;-6.14;100.00;102779.97;5051681;28;20505;-47
2022/12/18 01:43:45;;;;;;;48.20;43.23;;;;;;;-6.12;100.00;102778.19;5051234;28;20428;-47
2022/12/18 01:46:13;;;;;;;52.03;46.47;;;;;;;-6.13;100.00;102772.16;5051186;28;20415;-46
2022/12/18 01:48:43;;;;;;;50.27;45.33;;;;;;;-6.12;100.00;102789.41;5050927;28;20691;-53
2022/12/18 01:51:12;;;;;;;54.63;46.73;;;;;;;-6.14;100.00;102795.53;5051575;28;20862;-47
2022/12/18 01:53:42;;;;;;;50.10;44.40;;;;;;;-6.15;100.00;102793.88;5051561;28;20435;-48
2022/12/18 01:56:14;;;;;;;49.60;44.30;;;;;;;-6.15;100.00;102799.88;5050773;28;20534;-45
2022/12/18 01:58:49;;;;;;;48.80;43.73;;;;;;;-6.15;100.00;102806.84;5050554;28;20474;-46
2022/12/18 02:01:18;;;;;;;48.93;43.77;;;;;;;-6.18;100.00;102799.97;5050752;28;20451;-45
2022/12/18 02:03:47;;;;;;;50.50;45.67;;;;;;;-6.20;100.00;102802.63;5050665;28;21183;-47
2022/12/18 02:06:19;;;;;;;48.43;43.53;;;;;;;-6.24;100.00;102808.75;5050777;28;20841;-46
2022/12/18 02:09:02;;;;;;;51.60;45.43;;;;;;;-6.26;100.00;102810.56;5050512;28;20471;-46
2022/12/18 02:11:41;;;;;;;47.73;42.73;;;;;;;-6.27;100.00;102821.81;5051188;28;20533;-48
2022/12/18 02:14:19;;;;;;;47.00;42.77;;;;;;;-6.28;100.00;102816.69;5050924;28;20438;-46
2022/12/18 02:16:53;;;;;;;49.43;44.53;;;;;;;-6.28;100.00;102819.28;5050345;28;20477;-50
2022/12/18 02:19:48;;;;;;;52.70;43.73;;;;;;;-6.29;100.00;102817.56;5051028;28;20427;-49
2022/12/18 02:22:27;;;;;;;47.83;42.70;;;;;;;-6.29;100.00;102818.41;5050357;28;20509;-47
2022/12/18 02:25:06;;;;;;;48.17;43.30;;;;;;;-6.28;100.00;102817.53;5050955;28;20489;-48
2022/12/18 02:27:38;;;;;;;55.17;44.63;;;;;;;-6.27;100.00;102805.38;5050450;28;20467;-47
2022/12/18 02:30:08;;;;;;;46.43;41.90;;;;;;;-6.28;100.00;102803.69;5050024;28;20482;-47
2022/12/18 02:32:40;;;;;;;49.63;44.30;;;;;;;-6.28;100.00;102808.91;5050384;28;20439;-46
2022/12/18 02:35:13;;;;;;;51.40;46.40;;;;;;;-6.31;100.00;102796.00;5050801;28;20431;-47
2022/12/18 02:37:44;;;;;;;49.10;44.50;;;;;;;-6.32;100.00;102797.72;5045863;28;20881;-48
2022/12/18 02:40:14;;;;;;;49.83;44.47;;;;;;;-6.31;100.00;102803.78;5044375;28;20481;-46
2022/12/18 02:42:43;;;;;;;47.57;42.97;;;;;;;-6.30;100.00;102792.50;5050578;28;20439;-45
2022/12/18 02:45:11;;;;;;;48.73;43.47;;;;;;;-6.28;100.00;102794.19;5050661;28;20964;-50
2022/12/18 02:47:42;;;;;;;50.47;45.00;;;;;;;-6.26;100.00;102794.13;5050359;28;20472;-48
2022/12/18 02:50:18;;;;;;;51.30;46.10;;;;;;;-6.25;100.00;102793.25;5050630;28;20544;-47
2022/12/18 02:52:53;;;;;;;48.20;42.43;;;;;;;-6.23;100.00;102797.50;5050696;28;20434;-48
2022/12/18 02:55:32;;;;;;;47.80;43.00;;;;;;;-6.21;100.00;102792.25;5050029;28;20442;-49
2022/12/18 02:58:06;;;;;;;49.73;44.60;;;;;;;-6.24;100.00;102794.91;5050044;28;20521;-48
2022/12/18 03:00:39;;;;;;;49.13;44.20;;;;;;;-6.24;100.00;102795.78;5050015;28;21111;-48
2022/12/18 03:03:13;;;;;;;48.23;42.57;;;;;;;-6.26;100.00;102791.53;5050479;28;20493;-50
2022/12/18 03:05:45;;;;;;;47.23;42.30;;;;;;;-6.26;100.00;102799.31;5049525;28;20837;-48
2022/12/18 03:08:17;;;;;;;46.97;42.10;;;;;;;-6.29;100.00;102814.97;5049757;28;20592;-46
2022/12/18 03:10:52;;;;;;;46.13;41.63;;;;;;;-6.30;100.00;102818.47;5050382;28;20627;-46
2022/12/18 03:13:27;;;;;;;46.37;41.63;;;;;;;-6.32;100.00;102828.88;5050624;28;20438;-46
2022/12/18 03:15:57;;;;;;;44.93;40.50;;;;;;;-6.33;100.00;102829.75;5050240;28;20430;-47
2022/12/18 03:18:30;;;;;;;47.10;42.50;;;;;;;-6.35;100.00;102830.69;5049015;28;20467;-53
2022/12/18 03:21:04;;;;;;;48.00;43.43;;;;;;;-6.37;100.00;102822.97;5050470;28;20445;-48
2022/12/18 03:23:40;;;;;;;46.20;41.40;;;;;;;-6.37;100.00;102820.38;5050206;28;20462;-46
2022/12/18 03:26:11;;;;;;;45.77;41.13;;;;;;;-6.36;100.00;102818.63;5049780;28;20941;-48
2022/12/18 03:28:45;;;;;;;47.23;42.57;;;;;;;-6.39;100.00;102818.72;5049815;28;21055;-50
2022/12/18 03:31:14;;;;;;;46.10;41.27;;;;;;;-6.41;100.00;102818.72;5050179;28;20490;-48
2022/12/18 03:33:47;;;;;;;44.53;40.03;;;;;;;-6.40;100.00;102815.25;5049662;28;20431;-48
2022/12/18 03:36:16;;;;;;;49.03;43.83;;;;;;;-6.39;100.00;102805.72;5049103;28;20427;-48
2022/12/18 03:38:43;;;;;;;53.30;42.60;;;;;;;-6.39;100.00;102800.53;5039387;28;20987;-48
2022/12/18 03:41:17;;;;;;;45.40;41.20;;;;;;;-6.42;100.00;102798.84;5051478;28;20459;-46
2022/12/18 03:43:52;;;;;;;51.33;42.00;;;;;;;-6.44;100.00;102794.59;5053716;28;20798;-47
2022/12/18 03:46:28;;;;;;;46.40;41.70;;;;;;;-6.44;100.00;102797.19;5053051;28;20427;-47
2022/12/18 03:49:02;;;;;;;47.37;42.57;;;;;;;-6.47;100.00;102799.84;5053349;28;20435;-46
2022/12/18 03:51:40;;;;;;;45.43;40.90;;;;;;;-6.49;100.00;102806.84;5053717;28;20486;-48
2022/12/18 03:54:10;;;;;;;46.23;41.63;;;;;;;-6.52;100.00;102805.16;5053449;28;20469;-46
2022/12/18 03:56:42;;;;;;;49.00;43.70;;;;;;;-6.51;100.00;102814.63;5053108;28;20484;-52
2022/12/18 03:59:13;;;;;;;45.70;41.03;;;;;;;-6.52;100.00;102812.97;5052839;28;20428;-46
2022/12/18 04:01:44;;;;;;;48.37;43.43;;;;;;;-6.53;100.00;102816.44;5052808;28;20451;-46
2022/12/18 04:04:15;;;;;;;47.97;42.73;;;;;;;-6.53;100.00;102825.94;5053085;28;20764;-49
2022/12/18 04:06:44;;;;;;;47.87;42.87;;;;;;;-6.53;100.00;102820.75;5052670;28;20435;-46
2022/12/18 04:09:12;;;;;;;47.80;43.03;;;;;;;-6.57;100.00;102829.53;5053487;28;20489;-49
2022/12/18 04:11:42;;;;;;;47.87;42.87;;;;;;;-6.58;100.00;102825.22;5053070;28;20831;-49
2022/12/18 04:14:09;;;;;;;47.87;43.20;;;;;;;-6.61;100.00;102827.88;5053029;28;20462;-48
2022/12/18 04:16:45;;;;;;;46.23;41.93;;;;;;;-6.63;100.00;102825.31;5052401;28;20435;-47
2022/12/18 04:19:13;;;;;;;51.03;45.57;;;;;;;-6.65;100.00;102828.84;5052955;28;20838;-49
2022/12/18 04:21:40;;;;;;;45.13;40.93;;;;;;;-6.66;100.00;102834.94;5051974;28;20448;-46
2022/12/18 04:24:08;;;;;;;47.43;42.53;;;;;;;-6.68;100.00;102837.56;5052830;28;20833;-50
2022/12/18 04:26:36;;;;;;;45.30;41.00;;;;;;;-6.70;100.00;102854.91;5052396;28;20447;-45
2022/12/18 04:29:03;;;;;;;44.80;40.03;;;;;;;-6.72;100.00;102851.50;5052717;28;20489;-46
2022/12/18 04:31:31;;;;;;;45.73;41.03;;;;;;;-6.74;100.00;102851.53;5052287;28;20823;-45
2022/12/18 04:34:01;;;;;;;48.77;43.77;;;;;;;-6.74;100.00;102859.31;5052697;28;20432;-45
2022/12/18 04:36:29;;;;;;;47.73;43.00;;;;;;;-6.76;100.00;102855.03;5049434;28;20436;-45
2022/12/18 04:38:57;;;;;;;47.93;42.90;;;;;;;-6.74;100.00;102861.91;5043086;28;20431;-46
2022/12/18 04:41:24;;;;;;;47.83;43.20;;;;;;;-6.75;100.00;102860.19;5051380;28;20501;-46
2022/12/18 04:43:52;;;;;;;48.20;43.83;;;;;;;-6.76;100.00;102868.88;5051790;28;20461;-47
2022/12/18 04:46:19;;;;;;;46.37;42.17;;;;;;;-6.76;100.00;102860.25;5051963;28;20435;-47
2022/12/18 04:48:47;;;;;;;46.70;42.20;;;;;;;-6.77;100.00;102859.38;5051674;28;20471;-48
2022/12/18 04:51:16;;;;;;;46.97;42.47;;;;;;;-6.78;100.00;102851.66;5052043;28;20989;-48
2022/12/18 04:53:53;;;;;;;46.13;41.60;;;;;;;-6.79;100.00;102862.91;5052564;28;20419;-45
2022/12/18 04:56:20;;;;;;;46.40;41.73;;;;;;;-6.81;100.00;102855.13;5051351;28;20493;-49
2022/12/18 04:58:48;;;;;;;46.23;41.23;;;;;;;-6.82;100.00;102862.97;5050281;28;20467;-48
2022/12/18 05:01:18;;;;;;;48.23;43.27;;;;;;;-6.83;100.00;102861.25;5026598;28;20573;-47
2022/12/18 05:03:46;;;;;;;48.63;43.60;;;;;;;-6.85;100.00;102844.88;5029291;28;21022;-50
2022/12/18 05:06:13;;;;;;;47.20;41.30;;;;;;;-6.88;100.00;102853.59;5030563;28;20439;-49
2022/12/18 05:08:43;;;;;;;46.27;41.30;;;;;;;-6.89;100.00;102851.88;5031532;28;20471;-47
2022/12/18 05:11:15;;;;;;;45.23;41.10;;;;;;;-6.90;100.00;102847.56;5031292;28;20476;-48
2022/12/18 05:13:44;;;;;;;43.03;39.07;;;;;;;-6.92;100.00;102840.69;5032202;28;20429;-46
2022/12/18 05:16:11;;;;;;;45.03;40.90;;;;;;;-6.94;100.00;102845.94;5031916;28;20808;-47
2022/12/18 05:18:39;;;;;;;48.50;43.17;;;;;;;-6.95;100.00;102854.59;5061433;22;20577;-46
2022/12/18 05:21:07;;;;;;;50.47;44.33;;;;;;;-6.97;100.00;102858.13;5052423;28;20427;-44
2022/12/18 05:23:34;;;;;;;44.83;40.53;;;;;;;-6.96;100.00;102857.25;5052309;28;20810;-46
2022/12/18 05:26:07;;;;;;;52.30;44.70;;;;;;;-6.97;100.00;102860.72;5052321;28;20435;-45
2022/12/18 05:28:36;;;;;;;47.67;42.53;;;;;;;-7.00;100.00;102863.38;5064655;28;20467;-45
2022/12/18 05:31:05;;;;;;;47.37;42.20;;;;;;;-7.02;100.00;102866.00;5052201;28;20466;-47
2022/12/18 05:33:35;;;;;;;46.53;41.83;;;;;;;-7.03;100.00;102872.06;5052376;28;20459;-44
2022/12/18 05:36:05;;;;;;;46.93;42.20;;;;;;;-7.03;100.00;102873.81;5051031;28;20438;-45
2022/12/18 05:38:35;;;;;;;46.17;41.73;;;;;;;-7.05;100.00;102881.63;5025909;28;20998;-47
2022/12/18 05:41:05;;;;;;;48.93;43.60;;;;;;;-7.07;100.00;102883.38;5032380;28;20784;-46
2022/12/18 05:43:35;;;;;;;45.53;41.10;;;;;;;-7.08;100.00;102888.63;5032336;28;20436;-44
2022/12/18 05:46:05;;;;;;;51.27;43.27;;;;;;;-7.10;100.00;102887.78;5031936;28;20475;-45
2022/12/18 05:48:32;;;;;;;46.63;42.20;;;;;;;-7.15;100.00;102889.63;5031611;28;20547;-44
2022/12/18 05:51:05;;;;;;;46.80;42.60;;;;;;;-7.13;100.00;102893.88;5032180;28;20472;-48
2022/12/18 05:53:33;;;;;;;54.43;44.83;;;;;;;-7.14;100.00;102880.97;5032154;28;20443;-44
2022/12/18 05:56:02;;;;;;;47.07;42.73;;;;;;;-7.12;100.00;102879.19;5031736;28;20435;-44
2022/12/18 05:58:32;;;;;;;48.57;43.47;;;;;;;-7.13;100.00;102882.66;5048572;28;20460;-44
2022/12/18 06:01:08;;;;;;;48.63;43.43;;;;;;;-7.12;100.00;102887.81;5051612;28;20454;-44
2022/12/18 06:03:35;;;;;;;45.90;41.50;;;;;;;-7.11;100.00;102886.09;5051743;28;20439;-44
2022/12/18 06:06:03;;;;;;;49.60;44.67;;;;;;;-7.10;100.00;102878.25;5051403;28;20432;-44
2022/12/18 06:08:31;;;;;;;46.60;41.77;;;;;;;-7.10;100.00;102891.22;5033728;28;20476;-46
2022/12/18 06:10:59;;;;;;;48.83;43.90;;;;;;;-7.09;100.00;102889.50;5031652;28;20450;-45
2022/12/18 06:13:26;;;;;;;48.10;42.97;;;;;;;-7.08;100.00;102892.06;5031687;28;20836;-45
2022/12/18 06:15:55;;;;;;;47.03;42.20;;;;;;;-7.08;100.00;102891.22;5031324;28;20428;-45
2022/12/18 06:18:23;;;;;;;50.07;43.30;;;;;;;-7.08;100.00;102886.88;5029056;28;20478;-49
2022/12/18 06:20:56;;;;;;;49.27;44.20;;;;;;;-7.06;100.00;102879.06;5031658;28;20463;-48
2022/12/18 06:23:24;;;;;;;46.70;42.30;;;;;;;-7.05;100.00;102883.38;5031772;28;20503;-46
2022/12/18 06:25:52;;;;;;;48.90;43.97;;;;;;;-7.06;100.00;102884.25;5031519;28;20441;-47
2022/12/18 06:28:20;;;;;;;45.37;40.90;;;;;;;-7.09;100.00;102884.31;5011488;28;20457;-44
2022/12/18 06:30:49;;;;;;;47.70;42.87;;;;;;;-7.09;100.00;102895.53;5012159;28;20448;-45
2022/12/18 06:33:18;;;;;;;45.93;41.67;;;;;;;-7.07;100.00;102896.34;5012032;28;20551;-45
2022/12/18 06:35:45;;;;;;;43.23;39.10;;;;;;;-7.05;100.00;102898.94;5011942;28;20900;-47
2022/12/18 06:38:13;;;;;;;43.67;39.37;;;;;;;-7.05;100.00;102906.72;5011256;28;20468;-46
2022/12/18 06:40:41;;;;;;;47.20;42.60;;;;;;;-7.06;100.00;102907.59;5011683;28;20467;-44
2022/12/18 06:43:08;;;;;;;45.43;41.30;;;;;;;-7.06;100.00;102911.03;5011959;28;20425;-44
2022/12/18 06:45:36;;;;;;;44.57;40.37;;;;;;;-7.08;100.00;102918.00;5011561;28;21006;-46
2022/12/18 06:48:04;;;;;;;46.20;41.53;;;;;;;-7.07;100.00;102922.28;5010063;28;20477;-45
2022/12/18 06:50:33;;;;;;;45.17;40.97;;;;;;;-7.05;100.00;102923.13;5011724;28;20429;-44
2022/12/18 06:53:00;;;;;;;46.57;42.17;;;;;;;-7.03;100.00;102928.25;5011535;28;20468;-45
2022/12/18 06:55:29;;;;;;;45.77;41.30;;;;;;;-7.04;100.00;102936.91;5011186;28;20437;-45
2022/12/18 06:57:57;;;;;;;46.30;41.90;;;;;;;-7.04;100.00;102932.59;5011178;28;20472;-45
2022/12/18 07:00:25;;;;;;;45.90;41.00;;;;;;;-7.06;100.00;102930.91;5011885;28;20429;-44
2022/12/18 07:02:52;;;;;;;45.77;41.20;;;;;;;-7.07;100.00;102935.25;5011711;28;20480;-46
2022/12/18 07:05:20;;;;;;;46.17;41.70;;;;;;;-7.08;100.00;102936.16;5011404;28;20502;-47
2022/12/18 07:07:49;;;;;;;46.27;42.03;;;;;;;-7.10;100.00;102942.22;5011129;28;20475;-44
2022/12/18 07:10:17;;;;;;;44.97;40.87;;;;;;;-7.10;100.00;102952.59;5011764;28;20511;-45
2022/12/18 07:12:44;;;;;;;42.83;39.43;;;;;;;-7.13;100.00;102956.13;5011532;28;20477;-45
2022/12/18 07:15:12;;;;;;;45.63;41.03;;;;;;;-7.13;100.00;102953.53;5011426;28;20516;-52
2022/12/18 07:17:40;;;;;;;44.83;40.73;;;;;;;-7.14;100.00;102957.00;5013275;28;20515;-45
2022/12/18 07:20:09;;;;;;;45.87;41.20;;;;;;;-7.13;100.00;102944.88;5015362;28;20461;-45
2022/12/18 07:22:37;;;;;;;46.90;42.77;;;;;;;-7.14;100.00;102958.75;5014766;28;20844;-47
2022/12/18 07:25:08;;;;;;;45.53;41.37;;;;;;;-7.15;100.00;102954.44;5014895;28;20482;-47
2022/12/18 07:27:36;;;;;;;45.93;41.63;;;;;;;-7.16;100.00;102955.31;5014681;28;20469;-46
2022/12/18 07:30:04;;;;;;;42.60;39.23;;;;;;;-7.17;100.00;102962.25;5015211;28;20457;-46
2022/12/18 07:32:32;;;;;;;46.23;41.93;;;;;;;-7.16;100.00;102960.50;5014908;28;20871;-46
2022/12/18 07:35:00;;;;;;;44.20;40.30;;;;;;;-7.13;100.00;102968.22;5012492;28;20801;-45
2022/12/18 07:37:28;;;;;;;44.83;40.70;;;;;;;-7.12;100.00;102972.53;5013833;28;20511;-44
2022/12/18 07:39:55;;;;;;;41.20;37.80;;;;;;;-7.10;100.00;102971.59;5014672;28;20457;-44
2022/12/18 07:42:34;;;;;;;43.13;39.30;;;;;;;-7.05;100.00;102972.41;5014718;28;20472;-47
2022/12/18 07:45:02;;;;;;;44.70;40.57;;;;;;;-7.03;100.00;102975.81;5014606;28;20797;-46
2022/12/18 07:47:35;;;;;;;42.50;38.80;;;;;;;-6.99;100.00;102981.78;5014413;28;20964;-45
2022/12/18 07:50:04;;;;;;;44.90;40.57;;;;;;;-6.95;100.00;102973.91;5014894;28;20449;-48
2022/12/18 07:52:31;;;;;;;48.10;43.50;;;;;;;-6.93;100.00;102982.50;5013817;28;20469;-47
2022/12/18 07:54:59;;;;;;;44.70;40.90;;;;;;;-6.87;100.00;102984.13;5014383;28;20464;-46
2022/12/18 07:57:28;;;;;;;42.63;38.57;;;;;;;-6.82;100.00;102982.28;5014081;28;20576;-45
2022/12/18 08:00:17;;;;;;;41.17;37.63;;;;;;;-6.79;100.00;102992.59;5014332;28;20480;-45
2022/12/18 08:02:44;;;;;;;42.00;38.60;;;;;;;-6.74;100.00;102993.34;5014409;28;20452;-45
2022/12/18 08:05:13;;;;;;;38.53;35.53;;;;;;;-6.69;100.00;102991.56;5013676;28;20437;-46
2022/12/18 08:07:40;;;;;;;40.70;37.40;;;;;;;-6.62;100.00;102993.09;5013502;28;20467;-45
2022/12/18 08:10:09;;;;;;;39.20;35.90;;;;;;;-6.55;100.00;102992.09;5013913;28;20500;-48
2022/12/18 08:12:38;;;;;;;39.23;36.23;;;;;;;-6.49;100.00;102997.16;5014100;28;20477;-48
2022/12/18 08:15:07;;;;;;;38.40;35.20;;;;;;;-6.38;100.00;102991.72;5014113;28;20437;-50
2022/12/18 08:17:34;;;;;;;39.97;36.70;;;;;;;-6.32;100.00;102991.59;5012414;28;21082;-49
2022/12/18 08:20:02;;;;;;;40.70;36.60;;;;;;;-6.26;100.00;102984.53;5013898;28;20457;-45
2022/12/18 08:22:30;;;;;;;38.53;35.50;;;;;;;-6.19;100.00;102980.91;5013314;28;20476;-45
2022/12/18 08:24:58;;;;;;;37.53;34.67;;;;;;;-6.11;100.00;102972.06;5013980;28;20440;-48
2022/12/18 08:27:25;;;;;;;38.17;35.27;;;;;;;-6.07;100.00;102974.56;5013278;28;20461;-45
2022/12/18 08:29:58;;;;;;;35.93;33.23;;;;;;;-6.04;100.00;102974.50;5013870;28;20452;-50
2022/12/18 08:32:27;;;;;;;37.97;34.97;;;;;;;-6.00;100.00;102970.09;5013770;28;20527;-47
2022/12/18 08:34:55;;;;;;;38.10;35.00;;;;;;;-5.93;100.00;102969.88;5012867;28;20433;-49
2022/12/18 08:37:22;;;;;;;37.07;34.17;;;;;;;-5.86;100.00;102958.47;5012890;28;20469;-47
2022/12/18 08:39:50;;;;;;;35.97;33.17;;;;;;;-5.82;100.00;102966.97;5013660;28;20449;-45
2022/12/18 08:45:04;;;;;;;36.60;33.80;;;;;;;-5.76;100.00;102965.09;5013319;28;20440;-47
2022/12/18 08:47:32;;;;;;;37.70;34.90;;;;;;;-5.71;100.00;102955.47;5012172;28;20468;-47
2022/12/18 08:49:59;;;;;;;36.00;33.27;;;;;;;-5.69;100.00;102964.06;5012756;28;20453;-46
2022/12/18 08:52:28;;;;;;;36.50;33.83;;;;;;;-5.65;100.00;102962.25;5013412;28;20464;-45
2022/12/18 08:54:55;;;;;;;34.77;32.03;;;;;;;-5.57;100.00;102962.03;5013201;28;20487;-45
2022/12/18 08:57:23;;;;;;;37.10;34.07;;;;;;;-5.54;100.00;102965.41;5012922;28;20467;-48
2022/12/18 08:59:51;;;;;;;36.33;33.63;;;;;;;-5.47;100.00;102966.09;5013222;28;20503;-48
2022/12/18 09:02:20;;;;;;;37.37;34.47;;;;;;;-5.39;100.00;102972.81;5013532;28;20450;-46
2022/12/18 09:04:48;;;;;;;34.00;31.37;;;;;;;-5.27;100.00;102969.88;5012711;28;20433;-45
2022/12/18 09:07:23;;;;;;;34.17;31.73;;;;;;;-5.17;100.00;102973.09;5012368;28;20515;-49
2022/12/18 09:09:51;;;;;;;33.00;30.80;;;;;;;-5.06;100.00;102977.09;5013042;28;20453;-45
2022/12/18 09:12:19;;;;;;;33.80;31.50;;;;;;;-5.09;100.00;102971.13;5013072;28;20491;-46
2022/12/18 09:14:47;;;;;;;36.70;33.90;;;;;;;-5.10;100.00;102977.22;5012772;28;20507;-45
2022/12/18 09:17:15;;;;;;;34.53;32.23;;;;;;;-5.00;100.00;102970.00;5012478;28;21015;-45
2022/12/18 09:19:44;;;;;;;33.43;30.80;;;;;;;-4.92;100.00;102966.28;5012937;28;20460;-45
2022/12/18 09:22:12;;;;;;;34.00;31.80;;;;;;;-4.86;100.00;102965.25;5012811;28;20943;-45
2022/12/18 09:24:40;;;;;;;33.80;31.20;;;;;;;-4.80;100.00;102958.13;5012730;28;20425;-47
2022/12/18 09:27:08;;;;;;;34.93;32.33;;;;;;;-4.78;100.00;102960.72;5012155;28;20472;-49
2022/12/18 09:29:35;;;;;;;34.73;32.23;;;;;;;-4.69;100.00;102957.84;5012967;28;20453;-46
2022/12/18 09:32:03;;;;;;;36.97;33.97;;;;;;;-4.59;100.00;102961.84;5012589;28;20442;-45
2022/12/18 09:34:30;;;;;;;33.97;31.80;;;;;;;-4.50;100.00;102966.78;5012460;28;20488;-45
2022/12/18 09:36:59;;;;;;;35.60;33.33;;;;;;;-4.51;100.00;102965.94;5011992;28;20911;-49
2022/12/18 09:39:27;;;;;;;33.90;31.80;;;;;;;-4.42;100.00;102974.38;5011824;28;20507;-45
2022/12/18 09:41:58;;;;;;;33.37;31.13;;;;;;;-4.37;100.00;102981.16;5012451;28;20444;-45
2022/12/18 09:44:29;;;;;;;34.20;31.90;;;;;;;-4.28;100.00;102974.81;5012309;28;20948;-46
2022/12/18 09:47:13;;;;;;;33.20;31.00;;;;;;;-4.14;100.00;102981.28;5009198;28;20464;-45
2022/12/18 09:49:44;;;;;;;33.90;31.30;;;;;;;-4.04;100.00;102980.13;5012371;28;20449;-46
2022/12/18 09:52:19;;;;;;;32.27;30.30;;;;;;;-3.89;100.00;102985.72;5012255;28;21001;-46
2022/12/18 09:54:52;;;;;;;33.93;31.53;;;;;;;-3.82;100.00;102984.63;5012340;28;20472;-51
2022/12/18 09:57:22;;;;;;;33.63;31.17;;;;;;;-3.79;100.00;102984.53;5012184;28;20852;-45
2022/12/18 09:59:55;;;;;;;32.97;30.33;;;;;;;-3.70;100.00;102995.50;5012121;28;20980;-46
2022/12/18 10:02:25;;;;;;;33.70;31.20;;;;;;;-3.60;100.00;102996.03;5011752;28;20443;-46
2022/12/18 10:05:05;;;;;;;34.23;31.83;;;;;;;-3.50;100.00;102994.84;5011770;28;20473;-50
2022/12/18 10:07:47;;;;;;;33.10;31.00;;;;;;;-3.26;100.00;102998.38;5011898;28;20465;-49
2022/12/18 10:10:27;;;;;;;31.57;29.43;;;;;;;-3.02;100.00;103000.13;5011876;28;20484;-45
2022/12/18 10:13:03;;;;;;;34.50;32.20;;;;;;;-2.67;100.00;102998.84;4992180;28;20430;-45
2022/12/18 10:15:37;;;;;;;34.03;31.80;;;;;;;-2.34;100.00;102995.81;4992326;28;20441;-52
2022/12/18 10:18:19;;;;;;;32.67;30.47;;;;;;;-2.04;100.00;102990.28;4991998;28;20458;-47
2022/12/18 10:20:52;;;;;;;32.90;30.30;;;;;;;-1.83;100.00;103005.13;4992603;28;20503;-47
2022/12/18 10:23:28;;;;;;;33.90;31.70;;;;;;;-1.64;100.00;103007.84;4992259;28;20440;-49
2022/12/18 10:26:01;;;;;;;33.50;31.30;;;;;;;-1.59;100.00;103011.09;4992044;28;20962;-47
2022/12/18 10:28:31;;;;;;;33.10;30.67;;;;;;;-1.58;100.00;103013.66;4991774;28;20893;-46
2022/12/18 10:30:59;;;;;;;32.13;29.97;;;;;;;-1.45;100.00;103012.25;4991752;28;20434;-45
2022/12/18 10:33:31;;;;;;;32.07;30.27;;;;;;;-1.42;100.00;103000.78;4992201;28;21001;-45
2022/12/18 10:35:59;;;;;;;33.73;31.27;;;;;;;-1.35;100.00;103000.47;4991699;28;20436;-47
2022/12/18 10:38:30;;;;;;;32.17;30.23;;;;;;;-1.14;100.00;102996.94;5008748;28;20465;-45
2022/12/18 10:40:59;;;;;;;32.73;30.47;;;;;;;-1.18;100.00;102995.38;5011511;28;20424;-46
2022/12/18 10:43:28;;;;;;;31.23;29.23;;;;;;;-1.25;100.00;103000.91;5012162;28;20441;-46
2022/12/18 10:46:18;;;;;;;31.77;29.80;;;;;;;-1.17;100.00;102986.59;5011013;28;20429;-50
2022/12/18 10:48:53;;;;;;;31.57;29.67;;;;;;;-1.02;100.00;102992.94;5010986;28;20840;-46
2022/12/18 10:51:24;;;;;;;30.87;28.90;;;;;;;-0.96;100.00;102976.09;5014851;28;20421;-46
2022/12/18 10:54:00;;;;;;;31.43;29.60;;;;;;;-0.94;100.00;102982.97;5015652;28;20523;-46
2022/12/18 10:56:31;;;;;;;30.67;28.90;;;;;;;-0.91;100.00;102980.22;5015282;28;20495;-46
2022/12/18 10:59:01;;;;;;;29.30;27.57;;;;;;;-0.95;100.00;102969.91;5015624;28;20503;-48
2022/12/18 11:01:46;;;;;;;30.23;28.43;;;;;;;-0.94;100.00;102972.47;5015798;28;20433;-47
2022/12/18 11:04:19;;;;;;;31.57;29.43;;;;;;;-0.74;100.00;102975.06;5012981;28;20532;-48
2022/12/18 11:06:56;;;;;;;30.87;28.97;;;;;;;-0.71;100.00;102988.00;5014542;28;20460;-46
2022/12/18 11:09:27;;;;;;;31.17;29.17;;;;;;;-0.69;99.12;102980.09;5015110;28;20459;-49
2022/12/18 11:11:56;;;;;;;31.87;29.97;;;;;;;-0.72;98.43;102965.34;5015512;28;20440;-45
2022/12/18 11:14:27;;;;;;;30.10;28.30;;;;;;;-0.74;97.60;102969.81;5014624;28;20580;-47
2022/12/18 11:16:57;;;;;;;32.20;30.17;;;;;;;-0.66;100.00;102969.47;5012173;28;20487;-45
2022/12/18 11:19:44;;;;;;;33.40;31.40;;;;;;;-0.70;100.00;102958.28;5015243;28;20507;-48
2022/12/18 11:22:21;;;;;;;31.80;29.90;;;;;;;-0.78;100.00;102957.78;5015248;28;20443;-45